Aérodrome :
LOGIN :

S'inscrire | Disclaimer

   EN    FR    IT 

 










Légende :    VFR   VFR Marginal   IFR   IFR Intensif   IFR Très Intensif
Visi : 
Plafond : 
>= 8 km
>= 3000ft
5 à 8 km
1000 à 3000 ft
1500m à 5 km
500 à 1000 ft
800 à 1500m
200 à 500 ft
< 800m
< 200 ft
Symboles :   Orages  Brouillard  Fortes neiges  Fortes précipitations  Vent > 20 kt
SIGMETs :   Divers  Orages  Givrage  Turbulence  Onde Orograph.  Cendres Volcan.







- Altitude de l'aérodrome : 526 ft
- Code IATA : LTN
- Voir les cartes d'approche


EGGW - London Luton

DERNIER METAR :
  • 270750Z AUTO VRB03KT 9000 -RA BKN030/// OVC043/// //////TCU 07/06 Q1009

METARs EXPIRÉS :
  • 270720Z AUTO 17005KT 130V210 9999 -RA FEW006/// SCT024/// BKN038/// //////TCU 07/06 Q1009
  • 270650Z AUTO 17006KT 140V200 9000 -RA BKN004 OVC041 07/06 Q1009
  • 270620Z AUTO 16004KT 6000 -RA BKN004 OVC044 07/06 Q1010
  • 270550Z AUTO 16004KT 6000 -RA SCT015 BKN036 07/06 Q1010
  • 270520Z AUTO 15003KT 8000 -RA FEW046 06/06 Q1010

TAF AMD TAF EGGW
Valide du 27 à 06h jusqu'au 28 à 06h UTC


270626Z 2706/2806 17006KT 9999 SCT025
BECMG 2706/2710 11010KT
TEMPO 2706/2806 8000 -RA BKN010
PROB40
TEMPO 2706/2721 4000 RA BKN004
BECMG 2720/2724 VRB05KT
PROB40
TEMPO 2721/2724 2000 RADZ BKN003
ATIS : +44 1582 395 204
Pas de NOTAMs connus pour ce terrain.



MET'MAP, la Météo Aéronautique d'un coup d'oeil ! - Copyright ORBIFLY Décembre 2007 - Disclaimer

ORBIFLY MET'MAP TEAM :

Programmation & Développement : Alexandra Zaïnal
Conception & Développement : Baudouin d'Aumeries
Co-Programmation & Développement : Marc-Olivier Méhu
Soutien technique & logistique : Manuel Goepfert

Contact : metmap@orbifly.com




SOURCES & CREDITS :

   NOAA